Pays
Station

 

Conditions  météo  pour  San Diego, Brown Field Municipal Airport  -  Etats-Unis    Etats-Unis

  
17 °C
    
 
 

METAR pour San Diego, Brown Field Municipal Airport :

KSDM 260053Z 29007KT 10SM CLR 17/12 A3002 RMK AO2 SLP163 T01720117

 

Voici le bulletin pour San Diego, Brown Field Municipal Airport - Etats-Unis.
 
Le bulletin a été fait il y a 55 minutes, à 00:53 UTC .
Le vent soufflait à la vitesse de 3.6 mètres par seconde de Ouest/Nord-ouest (290°).
 
La température était de 17 °C, avec un point de rosée à 12 °C.
La pression atmosphérique était de 1017 hPa.
L'humidité relative était de 72.4%.
 
Le ciel était clair.
 
La visibilité globale était de 16.1 kilomètres.
 

 
 
 

Pays :   A   B   C   D   E   F   G   H   I   J   K   L   M   N   O   P   Q   R   S   T   U   V   W   Y   Z

 

Partenaires :  Info Météo avec Met'info
Météo Marine avec MeteoMarine.net
Infos Site  |  Infos Légales  |  Crédits  |  Confidentialité
Contactez-nous  |  Ajouter aux favoris
© 2013-2018 METAR - Tous droits réservés